Terminal Aerodrome Forecast
Issued by NWS

Current Version | Previous Version | Text Only | Print | Product List | Glossary On
Versions: 1 2 3 4 5 6 7 8 9 10 11 12 13 14 15 16
000
FTUS44 KCRP 181100
TAFLRD
TAF
KLRD 181129Z 1812/1912 33005KT 5SM BR OVC006
      TEMPO 1812/1815 1SM -RA BR BKN004
     FM182100 35005KT P6SM OVC015
     FM190500 34004KT 6SM BR VCSH OVC008=

USA.gov is the U.S. government's official web portal to all federal, state and local government web resources and services.